Flight Track Log - Related Links

Times and Time Zones

All times are in EDT time to prevent confusion due to time zone crossing. See the N929SR flight status page for this flight to view local times or setup timezone preferences in your user account.

Time Position Orientation Groundspeed Altitude Reporting Facility
EDT Latitude Longitude Course Direction KTS MPH feet Rate Location/Type
Tue 07:10:00 AM 45.7892 -108.4656 114° Southeast 216 249 6,400  Level Salt Lake Center
Tue 07:11:00 AM 45.7597 -108.3686 113° Southeast 265 305 12,000 4,650 Climbing Salt Lake Center
Tue 07:12:00 AM 45.7292 -108.2683 114° Southeast 278 320 15,700 3,372 Climbing Salt Lake Center
Tue 07:13:01 AM 45.6947 -108.1536 113° Southeast 310 357 18,800 3,025 Climbing Salt Lake Center
Tue 07:14:01 AM 45.6583 -108.0344 114° Southeast 328 377 21,800 2,700 Climbing Salt Lake Center
Tue 07:15:00 AM 45.5041 -107.5551 114° Southeast  Level FlightAware Approximate
Tue 07:15:01 AM 45.6200 -107.9086 113° Southeast 354 407 24,200  Level Salt Lake Center
Tue 07:16:01 AM 45.5722 -107.7533 114° Southeast 379 436 26,900 2,600 Climbing Salt Lake Center
Tue 07:17:01 AM 45.5292 -107.6117 113° Southeast 403 464 29,400 2,529 Climbing Salt Lake Center
Tue 07:18:02 AM 45.4831 -107.4642 114° Southeast 422 486 32,000 2,727 Climbing Salt Lake Center
Tue 07:19:02 AM 45.4364 -107.3164 114° Southeast 427 491 34,900 2,850 Climbing Salt Lake Center
Tue 07:20:02 AM 45.3842 -107.1500 114° Southeast 413 475 37,700 2,350 Climbing Salt Lake Center
Tue 07:21:02 AM 45.3392 -107.0072 114° Southeast 411 473 39,600 1,636 Climbing Salt Lake Center
Tue 07:22:03 AM 45.2958 -106.8731 115° Southeast 395 455 41,000 694 Climbing Salt Lake Center
Tue 07:23:03 AM 45.2497 -106.7294 114° Southeast 406 467 41,000  Level Salt Lake Center
Tue 07:24:03 AM 45.1922 -106.5528 115° Southeast 431 496 41,000  Level Salt Lake Center
Tue 07:25:04 AM 45.1414 -106.3978 115° Southeast 445 512 41,000  Level Salt Lake Center
Tue 07:26:04 AM 45.0933 -106.2461 114° Southeast 444 511 41,000  Level Salt Lake Center
Tue 07:27:04 AM 45.0439 -106.0931 115° Southeast 444 511 41,000  Level Salt Lake Center
Tue 07:28:04 AM 44.9828 -105.9147 116° Southeast 449 517 41,000  Level Salt Lake Center
Tue 07:28:37 AM 44.9569 -105.8381 115° Southeast 450 518 41,000  Level Denver Center
Tue 07:29:37 AM 44.9050 -105.6833 115° Southeast 454 522 41,000  Level Denver Center
Tue 07:30:37 AM 44.8453 -105.5031 115° Southeast 454 522 41,000  Level Denver Center
Tue 07:31:38 AM 44.7933 -105.3494 115° Southeast 453 521 41,000  Level Denver Center
Tue 07:32:38 AM 44.7433 -105.2006 115° Southeast 449 517 41,000  Level Denver Center
Tue 07:33:38 AM 44.6908 -105.0467 116° Southeast 454 522 41,000  Level Denver Center
Tue 07:34:38 AM 44.6300 -104.8700 116° Southeast 450 518 41,000  Level Denver Center
Tue 07:35:38 AM 44.5772 -104.7200 116° Southeast 448 516 41,000  Level Denver Center
Tue 07:36:39 AM 44.5239 -104.5678 116° Southeast 452 520 41,000  Level Denver Center
Tue 07:37:39 AM 44.4717 -104.4172 116° Southeast 447 514 41,000  Level Denver Center
Tue 07:38:39 AM 44.4106 -104.2450 116° Southeast 442 509 41,000  Level Denver Center
Tue 07:39:39 AM 44.3581 -104.0958 116° Southeast 444 511 41,000  Level Denver Center
Tue 07:40:39 AM 44.3053 -103.9494 117° Southeast 440 506 41,000  Level Denver Center
Tue 07:41:40 AM 44.2439 -103.7775 116° Southeast 443 510 41,000  Level Denver Center
Tue 07:42:40 AM 44.1900 -103.6294 117° Southeast 445 512 41,000  Level Denver Center
Tue 07:43:40 AM 44.1369 -103.4831 117° Southeast 444 511 41,000  Level Denver Center
Tue 07:44:40 AM 44.0842 -103.3364 117° Southeast 443 510 41,000  Level Denver Center
Tue 07:45:40 AM 44.0228 -103.1686 117° Southeast 438 504 41,000  Level Denver Center
Tue 07:46:41 AM 43.9711 -103.0269 117° Southeast 433 498 41,000  Level Denver Center
Tue 07:47:41 AM 43.9189 -102.8875 117° Southeast 429 494 41,000  Level Denver Center
Tue 07:48:41 AM 43.8644 -102.7442 118° Southeast 433 498 41,000  Level Denver Center
Tue 07:49:41 AM 43.8017 -102.5747 117° Southeast 440 506 41,000  Level Denver Center
Tue 07:50:41 AM 43.7478 -102.4317 118° Southeast 439 505 41,000  Level Denver Center
Tue 07:51:42 AM 43.6936 -102.2917 118° Southeast 435 501 41,000  Level Denver Center
Tue 07:52:42 AM 43.6419 -102.1528 117° Southeast 426 490 41,000  Level Denver Center
Tue 07:53:42 AM 43.5872 -102.0119 118° Southeast 427 491 41,000  Level Denver Center
Tue 07:54:42 AM 43.5314 -101.8664 118° Southeast 430 495 41,000  Level Denver Center
Tue 07:55:43 AM 43.4756 -101.7206 118° Southeast 433 498 41,000  Level Denver Center
Tue 07:56:43 AM 43.4292 -101.6033 119° Southeast 435 501 41,000  Level Denver Center
Tue 07:57:43 AM 43.3461 -101.4422 125° Southeast 429 494 41,000  Level Denver Center
Tue 07:58:43 AM 43.2536 -101.2892 130° Southeast 435 501 41,000  Level Denver Center
Tue 07:59:45 AM 43.1781 -101.1636 130° Southeast 430 495 41,000  Level Denver Center
Tue 08:01:18 AM 43.0717 -100.9861 129° Southeast 432 497 41,000  Level Minneapolis Center
Tue 08:01:45 AM 43.0267 -100.9086 128° Southeast 430 495 41,000  Level Denver Center
Tue 08:02:45 AM 42.9539 -100.7847 129° Southeast 420 483 41,000  Level Denver Center
Tue 08:03:46 AM 42.8814 -100.6611 129° Southeast 419 482 41,000  Level Denver Center
Tue 08:04:46 AM 42.8089 -100.5358 128° Southeast 420 483 41,000  Level Denver Center
Tue 08:05:46 AM 42.7367 -100.4122 128° Southeast 417 480 41,000  Level Denver Center
Tue 08:06:46 AM 42.6653 -100.2911 129° Southeast 420 483 41,000  Level Denver Center
Tue 08:07:47 AM 42.5947 -100.1689 128° Southeast 426 490 41,000  Level Denver Center
Tue 08:08:25 AM 42.5486 -100.0906 129° Southeast 422 486 41,000  Level Minneapolis Center
Tue 08:08:47 AM 42.5261 -100.0492 126° Southeast 423 487 41,000  Level Denver Center
Tue 08:09:47 AM 42.4481 -99.9119 128° Southeast 422 486 41,000  Level Denver Center
Tue 08:10:28 AM 42.4061 -99.8372 127° Southeast 421 484 41,000  Level Minneapolis Center
Tue 08:11:29 AM 42.3389 -99.7056 125° Southeast 422 486 41,000  Level Minneapolis Center
Tue 08:11:48 AM 42.3117 -99.6506 124° Southeast 425 489 41,000  Level Denver Center
Tue 08:12:48 AM 42.2442 -99.5183 125° Southeast 427 491 41,000  Level Denver Center
Tue 08:13:48 AM 42.1764 -99.3864 125° Southeast 427 491 41,000  Level Denver Center
Tue 08:14:32 AM 42.1367 -99.3042 123° Southeast 431 496 41,000  Level Minneapolis Center
Tue 08:14:49 AM 42.1075 -99.2517 127° Southeast 433 498 41,000  Level Denver Center
Tue 08:15:49 AM 42.0372 -99.1197 126° Southeast 433 498 41,000  Level Denver Center
Tue 08:16:34 AM 41.9828 -99.0128 124° Southeast 433 498 41,000  Level Minneapolis Center
Tue 08:17:35 AM 41.9125 -98.8800 125° Southeast 434 499 41,000  Level Minneapolis Center
Tue 08:18:37 AM 41.8442 -98.7458 124° Southeast 433 498 41,000  Level Minneapolis Center
Tue 08:19:38 AM 41.7758 -98.6094 124° Southeast 436 502 41,000  Level Minneapolis Center
Tue 08:20:39 AM 41.7103 -98.4678 122° Southeast 442 509 41,000  Level Minneapolis Center
Tue 08:21:40 AM 41.6497 -98.3192 119° Southeast 447 514 41,000  Level Minneapolis Center
Tue 08:22:41 AM 41.5900 -98.1714 118° Southeast 449 517 41,000  Level Minneapolis Center
Tue 08:23:43 AM 41.5344 -98.0342 118° Southeast 446 513 41,000  Level Minneapolis Center
Tue 08:24:44 AM 41.4733 -97.8886 119° Southeast 448 516 41,000  Level Minneapolis Center
Tue 08:25:45 AM 41.4119 -97.7411 119° Southeast 454 522 41,000  Level Minneapolis Center
Tue 08:26:46 AM 41.3386 -97.5647 119° Southeast 454 522 41,000  Level Minneapolis Center
Tue 08:27:47 AM 41.2853 -97.4392 119° Southeast 447 514 41,000  Level Minneapolis Center
Tue 08:28:49 AM 41.2181 -97.2853 120° Southeast 437 503 41,000  Level Minneapolis Center
Tue 08:29:50 AM 41.1617 -97.1497 119° Southeast 428 493 41,000  Level Minneapolis Center
Tue 08:30:51 AM 41.1044 -97.0161 120° Southeast 421 484 41,000  Level Minneapolis Center
Tue 08:31:52 AM 41.0444 -96.8756 119° Southeast 432 497 41,000  Level Minneapolis Center
Tue 08:32:53 AM 40.9825 -96.7303 119° Southeast 448 516 41,000  Level Minneapolis Center
Tue 08:33:54 AM 40.9203 -96.5883 120° Southeast 450 518 41,000  Level Minneapolis Center
Tue 08:34:56 AM 40.8586 -96.4458 120° Southeast 450 518 41,000  Level Minneapolis Center
Tue 08:35:57 AM 40.7839 -96.2753 120° Southeast 450 518 41,000  Level Minneapolis Center
Tue 08:36:58 AM 40.7228 -96.1333 120° Southeast 449 517 41,000  Level Minneapolis Center
Tue 08:37:59 AM 40.6597 -95.9925 121° Southeast 449 517 41,000  Level Minneapolis Center
Tue 08:39:01 AM 40.5969 -95.8508 120° Southeast 451 519 41,000  Level Minneapolis Center
Tue 08:40:02 AM 40.5333 -95.7086 120° Southeast 451 519 41,000  Level Minneapolis Center
Tue 08:41:03 AM 40.4697 -95.5656 120° Southeast 453 521 41,000  Level Minneapolis Center
Tue 08:42:04 AM 40.4067 -95.4203 120° Southeast 457 526 41,000  Level Minneapolis Center
Tue 08:43:05 AM 40.3422 -95.2769 121° Southeast 457 526 41,000  Level Minneapolis Center
Tue 08:44:19 AM 40.2644 -95.1075 121° Southeast 455 524 41,000  Level Minneapolis Center
Tue 08:45:20 AM 40.1883 -94.9353 120° Southeast 455 524 41,000  Level Minneapolis Center
Tue 08:46:21 AM 40.1214 -94.7947 122° Southeast 457 526 41,000  Level Minneapolis Center
Tue 08:47:22 AM 40.0597 -94.6606 121° Southeast 458 527 41,000  Level Minneapolis Center
Tue 08:48:23 AM 39.9947 -94.5192 121° Southeast 458 527 41,000  Level Minneapolis Center
Tue 08:49:25 AM 39.9289 -94.3789 121° Southeast 459 528 41,000  Level Minneapolis Center
Tue 08:50:26 AM 39.8644 -94.2408 121° Southeast 454 522 41,000  Level Minneapolis Center
Tue 08:51:27 AM 39.7986 -94.1028 122° Southeast 453 521 41,000  Level Minneapolis Center
Tue 08:52:28 AM 39.7217 -93.9353 121° Southeast 455 524 41,000  Level Minneapolis Center
Tue 08:53:29 AM 39.6553 -93.7978 122° Southeast 454 522 41,000  Level Minneapolis Center
Tue 08:54:30 AM 39.5894 -93.6578 121° Southeast 457 526 41,000  Level Minneapolis Center
Tue 08:55:45 AM 39.5097 -93.4922 122° Southeast 458 527 41,000  Level Kansas City Center
Tue 08:56:48 AM 39.4428 -93.3528 122° Southeast 457 526 41,000  Level Kansas City Center
Tue 08:57:49 AM 39.3781 -93.2178 122° Southeast 455 524 41,000  Level Kansas City Center
Tue 08:58:50 AM 39.2975 -93.0522 122° Southeast 458 527 41,000  Level Kansas City Center
Tue 08:59:53 AM 39.2322 -92.9200 122° Southeast 447 514 41,000  Level Kansas City Center
Tue 09:00:55 AM 39.1661 -92.7831 122° Southeast 450 518 41,000  Level Kansas City Center
Tue 09:01:56 AM 39.1006 -92.6461 122° Southeast 452 520 41,000  Level Kansas City Center
Tue 09:02:59 AM 39.0328 -92.5092 122° Southeast 452 520 41,000  Level Kansas City Center
Tue 09:04:00 AM 38.9514 -92.3431 122° Southeast 454 522 41,000  Level Kansas City Center
Tue 09:05:01 AM 38.8836 -92.2064 122° Southeast 452 520 41,000  Level Kansas City Center
Tue 09:06:01 AM 38.8153 -92.0728 123° Southeast 449 517 41,000  Level Kansas City Center
Tue 09:07:06 AM 38.7467 -91.9367 123° Southeast 449 517 41,000  Level Kansas City Center
Tue 09:08:06 AM 38.6783 -91.8008 123° Southeast 450 518 41,000  Level Kansas City Center
Tue 09:09:08 AM 38.6083 -91.6636 123° Southeast 454 522 41,000  Level Kansas City Center
Tue 09:10:08 AM 38.5386 -91.5278 123° Southeast 454 522 41,000  Level Kansas City Center
Tue 09:11:11 AM 38.4703 -91.3919 123° Southeast 453 521 41,000  Level Kansas City Center
Tue 09:12:14 AM 38.3903 -91.2403 124° Southeast 455 524 41,000  Level Kansas City Center
Tue 09:13:14 AM 38.3233 -91.1083 123° Southeast 451 519 41,000  Level Kansas City Center
Tue 09:14:15 AM 38.2553 -90.9761 123° Southeast 450 518 41,000  Level Kansas City Center
Tue 09:15:19 AM 38.1869 -90.8456 124° Southeast 449 517 41,000  Level Kansas City Center
Tue 09:16:20 AM 38.1181 -90.7139 124° Southeast 450 518 41,000  Level Kansas City Center
Tue 09:17:21 AM 38.0500 -90.5817 123° Southeast 451 519 41,000  Level Kansas City Center
Tue 09:18:23 AM 37.9661 -90.4236 124° Southeast 452 520 41,000  Level Kansas City Center
Tue 09:19:24 AM 37.8967 -90.2911 124° Southeast 452 520 41,000  Level Kansas City Center
Tue 09:20:27 AM 37.8275 -90.1625 124° Southeast 450 518 41,000  Level Kansas City Center
Tue 09:21:29 AM 37.7578 -90.0311 124° Southeast 451 519 41,000  Level Kansas City Center
Tue 09:22:30 AM 37.6875 -89.8983 124° Southeast 456 525 41,000  Level Kansas City Center
Tue 09:23:31 AM 37.6169 -89.7675 124° Southeast 456 525 41,000  Level Kansas City Center
Tue 09:24:34 AM 37.5453 -89.6275 123° Southeast 455 524 41,000  Level Kansas City Center
Tue 09:25:35 AM 37.4742 -89.4961 124° Southeast 454 522 41,000  Level Kansas City Center
Tue 09:26:36 AM 37.3872 -89.3375 125° Southeast 456 525 41,000  Level Kansas City Center
Tue 09:27:20 AM 37.3436 -89.2639 127° Southeast 457 526 41,000  Level Memphis Center
Tue 09:28:20 AM 37.2736 -89.1319 124° Southeast 457 526 41,000  Level Memphis Center
Tue 09:29:20 AM 37.1994 -88.9975 125° Southeast 457 526 41,000  Level Memphis Center
Tue 09:30:20 AM 37.1292 -88.8661 124° Southeast 462 532 41,000  Level Memphis Center
Tue 09:31:20 AM 37.0547 -88.7350 125° Southeast 462 532 41,000  Level Memphis Center
Tue 09:32:20 AM 36.9842 -88.6039 124° Southeast 462 532 41,000  Level Memphis Center
Tue 09:33:20 AM 36.9092 -88.4706 125° Southeast 462 532 41,000  Level Memphis Center
Tue 09:34:20 AM 36.8342 -88.3375 125° Southeast 467 537 41,000  Level Memphis Center
Tue 09:35:20 AM 36.7611 -88.2072 125° Southeast 461 531 41,000  Level Memphis Center
Tue 09:36:20 AM 36.6750 -88.0622 126° Southeast 466 536 41,000  Level Memphis Center
Tue 09:37:20 AM 36.5975 -87.9325 127° Southeast 477 549 41,000  Level Memphis Center
Tue 09:38:20 AM 36.5242 -87.8006 125° Southeast 469 540 41,000  Level Memphis Center
Tue 09:39:20 AM 36.4483 -87.6661 125° Southeast 469 540 41,000  Level Memphis Center
Tue 09:40:20 AM 36.3811 -87.5497 126° Southeast 469 540 41,000 -200 Level Memphis Center
Tue 09:41:20 AM 36.3050 -87.4161 125° Southeast 476 548 40,600 -850 Descending Memphis Center
Tue 09:42:20 AM 36.2289 -87.2875 126° Southeast 476 548 39,300 -1,400 Descending Memphis Center
Tue 09:43:20 AM 36.1525 -87.1542 125° Southeast 471 542 37,800 -1,700 Descending Memphis Center
Tue 09:44:20 AM 36.0739 -87.0186 126° Southeast 477 549 35,900 -1,450 Descending Memphis Center
Tue 09:45:20 AM 35.9953 -86.8858 126° Southeast 477 549 34,900 -950 Descending Memphis Center
Tue 09:46:20 AM 35.9164 -86.7483 125° Southeast 489 563 34,000 -950 Descending Memphis Center
Tue 09:47:20 AM 35.8333 -86.6186 128° Southeast 489 563 33,000 -316 Descending Memphis Center
Tue 09:49:30 AM 35.6147 -86.3811 139° Southeast 508 585 33,000  Level Atlanta Center
Tue 09:50:30 AM 35.5083 -86.2608 137° Southeast 493 567 33,000 -150 Level Atlanta Center
Tue 09:51:30 AM 35.4100 -86.1564 139° Southeast 481 554 32,700 -1,100 Descending Atlanta Center
Tue 09:52:30 AM 35.3119 -86.0444 137° Southeast 481 554 30,800 -2,000 Descending Atlanta Center
Tue 09:53:30 AM 35.2092 -85.9350 139° Southeast 481 554 28,700 -1,950 Descending Atlanta Center
Tue 09:54:30 AM 35.1250 -85.8494 140° Southeast 466 536 26,900 -1,850 Descending Atlanta Center
Tue 09:55:30 AM 35.0325 -85.7536 140° Southeast 448 516 25,000 -1,450 Descending Atlanta Center
Tue 09:56:30 AM 34.9400 -85.6528 138° Southeast 448 516 24,000 -500 Descending Atlanta Center
Tue 09:57:30 AM 34.8533 -85.5600 139° Southeast 443 510 24,000 -300 Level Atlanta Center
Tue 09:58:30 AM 34.7647 -85.4647 139° Southeast 430 495 23,400 -1,550 Descending Atlanta Center
Tue 09:59:30 AM 34.6719 -85.3672 139° Southeast 430 495 20,900 -2,600 Descending Atlanta Center
Tue 10:00:30 AM 34.5811 -85.2725 139° Southeast 430 495 18,200 -2,600 Descending Atlanta Center
Tue 10:01:30 AM 34.4944 -85.1781 138° Southeast 424 488 15,700 -2,400 Descending Atlanta Center
Tue 10:02:30 AM 34.4117 -85.0889 138° Southeast 386 444 13,400 -2,150 Descending Atlanta Center
Tue 10:03:30 AM 34.3372 -85.0125 140° Southeast 356 410 11,400 -2,000 Descending Atlanta Center
Tue 10:04:30 AM 34.2628 -84.9361 140° Southeast 351 404 9,400 -1,650 Descending Atlanta Center
Tue 10:05:30 AM 34.2006 -84.8700 139° Southeast 327 376 8,100 -800 Descending Atlanta Center
Tue 10:06:30 AM 34.1361 -84.8194 147° Southeast 288 331 7,800 -900 Descending Atlanta Center
Tue 10:07:30 AM 34.0739 -84.7686 146° Southeast 273 314 6,300 -1,350 Descending Atlanta Center
Tue 10:08:30 AM 34.0408 -84.7006 120° Southeast 255 293 5,100 -650 Descending Atlanta Center
Tue 10:09:30 AM 34.0142 -84.6328 115° Southeast 238 274 5,000 -50 Descending Atlanta Center
Tue 10:10:30 AM 33.9894 -84.5700 115° Southeast 216 249 5,000  Level Atlanta Center
Tue 10:11:30 AM 33.9625 -84.5047 116° Southeast 216 249 5,000 -700 Level Atlanta Center
Tue 10:12:30 AM 33.9294 -84.4269 117° Southeast 228 262 3,600 -795 Descending Atlanta Center
Tue 10:14:01 AM 33.8667 -84.3833 150° Southeast 162 186 3,000 -556 Descending Atlanta TRACON
Tue 10:15:01 AM 33.8333 -84.3500 140° Southeast 155 178 2,200 -750 Descending Atlanta TRACON
Tue 10:16:01 AM 33.8500 -84.3167 59° Northeast 155 178 1,500 -700 Descending Atlanta TRACON
Tue 10:18:00 AM 33.8667 -84.3000 117° Southeast  Level FlightAware Approximate

Login

Don't have an account? Register now (free) for customized features, flight alerts, and more!